Time,TemperatureF,DewpointF,PressureIn,WindDirection,WindDirectionDegrees,WindSpeedMPH,WindSpeedGustMPH,Humidity,HourlyPrecipIn,Conditions,Clouds,dailyrainin,SoftwareType,DateUTC
2013-05-28 00:01:00,82.6,66.3,28.97,SW,221,2.2,2.2,58,0.00,,---,0.00,VWS V14.00,2013-05-28 05:01:00,
2013-05-28 00:06:00,82.6,66.3,28.97,SW,221,2.2,2.2,58,0.00,,---,0.00,VWS V14.00,2013-05-28 05:06:00,
2013-05-28 00:11:00,82.6,66.3,28.97,SW,221,2.2,2.2,58,0.00,,---,0.00,VWS V14.00,2013-05-28 05:11:00,
2013-05-28 00:16:00,82.6,66.3,28.97,SW,221,2.2,2.2,58,0.00,,---,0.00,VWS V14.00,2013-05-28 05:16:00,
2013-05-28 00:21:00,82.6,66.3,28.97,SW,221,2.2,2.2,58,0.00,,---,0.00,VWS V14.00,2013-05-28 05:21:00,
2013-05-28 00:26:00,82.6,66.3,28.97,SW,221,2.2,2.2,58,0.00,,---,0.00,VWS V14.00,2013-05-28 05:26:00,
2013-05-28 00:31:00,82.6,66.3,28.97,SW,221,2.2,2.2,58,0.00,,---,0.00,VWS V14.00,2013-05-28 05:31:00,
2013-05-28 00:36:00,82.6,66.3,28.97,SW,221,2.2,2.2,58,0.00,,---,0.00,VWS V14.00,2013-05-28 05:36:00,
2013-05-28 00:41:00,82.6,66.3,28.97,SW,221,2.2,2.2,58,0.00,,---,0.00,VWS V14.00,2013-05-28 05:41:00,
2013-05-28 00:46:00,82.6,66.3,28.97,SW,221,2.2,2.2,58,0.00,,---,0.00,VWS V14.00,2013-05-28 05:46:00,
2013-05-28 00:51:00,82.6,66.3,28.97,SW,221,2.2,2.2,58,0.00,,---,0.00,VWS V14.00,2013-05-28 05:51:00,
2013-05-28 00:56:00,82.6,66.3,29.00,SW,221,2.2,2.2,58,0.00,,---,0.00,VWS V14.00,2013-05-28 05:56:00,
2013-05-28 01:01:00,82.6,66.3,29.00,SW,221,2.2,2.2,58,0.00,,---,0.00,VWS V14.00,2013-05-28 06:01:00,
2013-05-28 01:06:00,82.6,66.3,29.00,SW,221,2.2,2.2,58,0.00,,---,0.00,VWS V14.00,2013-05-28 06:06:00,
2013-05-28 01:11:00,82.6,66.3,29.00,SW,221,2.2,2.2,58,0.00,,---,0.00,VWS V14.00,2013-05-28 06:11:00,
2013-05-28 01:16:00,82.6,66.3,29.00,SW,221,2.2,2.2,58,0.00,,---,0.00,VWS V14.00,2013-05-28 06:16:00,
2013-05-28 01:21:00,82.6,66.3,29.00,SW,221,2.2,2.2,58,0.00,,---,0.00,VWS V14.00,2013-05-28 06:21:00,
2013-05-28 01:26:00,82.6,66.3,29.00,SW,221,2.2,2.2,58,0.00,,---,0.00,VWS V14.00,2013-05-28 06:26:00,
2013-05-28 01:31:00,82.6,66.3,29.00,SW,221,2.2,2.2,58,0.00,,---,0.00,VWS V14.00,2013-05-28 06:31:00,
2013-05-28 01:36:00,82.6,66.3,29.00,SW,221,2.2,2.2,58,0.00,,---,0.00,VWS V14.00,2013-05-28 06:36:00,
2013-05-28 01:41:00,82.6,66.3,29.00,SW,221,2.2,2.2,58,0.00,,---,0.00,VWS V14.00,2013-05-28 06:41:00,
2013-05-28 01:46:00,82.6,66.3,29.00,SW,221,2.2,2.2,58,0.00,,---,0.00,VWS V14.00,2013-05-28 06:46:00,
2013-05-28 01:51:00,82.6,66.3,29.00,SW,221,2.2,2.2,58,0.00,,---,0.00,VWS V14.00,2013-05-28 06:51:00,
2013-05-28 01:56:00,82.6,66.3,29.00,SW,221,2.2,2.2,58,0.00,,---,0.00,VWS V14.00,2013-05-28 06:56:00,
2013-05-28 02:01:00,70.3,57.6,29.00,SW,221,2.2,2.2,64,0.00,,---,0.00,VWS V14.00,2013-05-28 07:01:00,
2013-05-28 02:06:00,70.3,57.6,29.00,SW,221,2.2,2.2,64,0.00,,---,0.00,VWS V14.00,2013-05-28 07:06:00,
2013-05-28 02:11:00,70.5,57.8,29.00,SW,221,2.2,2.2,64,0.00,,---,0.00,VWS V14.00,2013-05-28 07:11:00,
2013-05-28 02:16:00,70.5,57.8,29.00,SW,221,2.2,2.2,64,0.00,,---,0.00,VWS V14.00,2013-05-28 07:16:00,
2013-05-28 02:21:00,70.5,57.8,29.00,SW,221,2.2,2.2,64,0.00,,---,0.00,VWS V14.00,2013-05-28 07:21:00,
2013-05-28 02:26:00,70.5,57.8,29.00,SW,221,2.2,2.2,64,0.00,,---,0.00,VWS V14.00,2013-05-28 07:26:00,
2013-05-28 02:31:00,70.5,57.8,29.00,SW,221,2.2,2.2,64,0.00,,---,0.00,VWS V14.00,2013-05-28 07:31:00,
2013-05-28 02:36:00,70.3,57.6,29.00,SW,221,2.2,2.2,64,0.00,,---,0.00,VWS V14.00,2013-05-28 07:36:00,
2013-05-28 02:41:00,70.3,57.6,29.00,WSW,251,4.0,4.0,64,0.00,,---,0.00,VWS V14.00,2013-05-28 07:41:00,
2013-05-28 02:46:00,70.2,57.4,29.00,SW,223,4.0,231.3,64,0.00,,---,0.00,VWS V14.00,2013-05-28 07:46:00,
2013-05-28 02:51:00,70.2,57.4,29.00,SW,223,4.0,231.3,64,0.00,,---,0.00,VWS V14.00,2013-05-28 07:51:00,
2013-05-28 02:56:00,70.2,57.4,29.00,SW,223,4.0,231.3,64,0.00,,---,0.00,VWS V14.00,2013-05-28 07:56:00,
2013-05-28 03:01:00,70.0,57.3,29.00,SW,223,4.0,231.3,64,0.00,,---,0.00,VWS V14.00,2013-05-28 08:01:00,
2013-05-28 03:06:00,70.0,57.3,29.00,West,260,3.6,3.6,64,0.00,,---,0.00,VWS V14.00,2013-05-28 08:06:00,
2013-05-28 03:11:00,69.8,57.1,29.00,West,260,3.6,3.6,64,0.00,,---,0.00,VWS V14.00,2013-05-28 08:11:00,
2013-05-28 03:16:00,69.8,57.1,29.00,WSW,252,2.2,2.2,64,0.00,,---,0.00,VWS V14.00,2013-05-28 08:16:00,
2013-05-28 03:21:00,69.8,57.1,29.00,SW,229,2.7,2.7,64,0.00,,---,0.00,VWS V14.00,2013-05-28 08:21:00,
2013-05-28 03:26:00,69.8,57.1,29.00,WNW,290,2.7,2.7,64,0.00,,---,0.00,VWS V14.00,2013-05-28 08:26:00,
2013-05-28 03:30:00,69.4,56.8,29.00,SSW,213,0.0,0.0,64,0.00,,---,0.00,VWS V14.00,2013-05-28 08:30:00,
2013-05-28 03:35:00,68.4,58.2,29.00,SSW,209,2.2,2.2,70,0.00,,---,0.00,VWS V14.00,2013-05-28 08:35:00,
2013-05-28 03:40:00,68.4,58.2,29.00,SSW,209,2.2,2.2,70,0.00,,---,0.00,VWS V14.00,2013-05-28 08:40:00,
2013-05-28 03:45:00,67.5,57.3,29.00,SSW,211,0.0,0.0,70,0.00,,---,0.00,VWS V14.00,2013-05-28 08:45:00,
2013-05-28 03:50:00,67.5,57.3,29.00,SSW,207,4.0,4.0,70,0.00,,---,0.00,VWS V14.00,2013-05-28 08:50:00,
2013-05-28 03:55:00,67.1,57.0,29.00,SW,222,4.9,4.9,70,0.00,,---,0.00,VWS V14.00,2013-05-28 08:55:00,
2013-05-28 04:00:00,67.3,58.7,29.00,South,189,3.1,3.1,74,0.00,,---,0.00,VWS V14.00,2013-05-28 09:00:00,
2013-05-28 04:05:00,67.3,58.7,29.00,SSW,200,3.1,3.1,74,0.00,,---,0.00,VWS V14.00,2013-05-28 09:05:00,
2013-05-28 04:10:00,67.3,58.7,29.00,South,191,0.0,0.0,74,0.00,,---,0.00,VWS V14.00,2013-05-28 09:10:00,
2013-05-28 04:15:00,67.3,58.7,29.00,SSW,204,2.7,2.7,74,0.00,,---,0.00,VWS V14.00,2013-05-28 09:15:00,
2013-05-28 04:20:00,67.3,58.7,29.00,SSW,204,2.7,2.7,74,0.00,,---,0.00,VWS V14.00,2013-05-28 09:20:00,
2013-05-28 04:25:00,67.3,58.7,29.00,SSW,204,2.7,2.7,74,0.00,,---,0.00,VWS V14.00,2013-05-28 09:25:00,
2013-05-28 04:30:00,67.3,58.7,29.00,SSW,196,0.0,0.0,74,0.00,,---,0.00,VWS V14.00,2013-05-28 09:30:00,
2013-05-28 04:35:00,67.3,58.7,29.00,SSW,196,0.0,0.0,74,0.00,,---,0.00,VWS V14.00,2013-05-28 09:35:00,
2013-05-28 04:40:00,67.3,58.7,29.00,WSW,245,0.0,0.0,74,0.00,,---,0.00,VWS V14.00,2013-05-28 09:40:00,
2013-05-28 04:45:00,67.5,58.9,29.00,WSW,245,0.0,0.0,74,0.00,,---,0.00,VWS V14.00,2013-05-28 09:45:00,
2013-05-28 04:50:00,67.5,58.9,29.00,SSW,198,0.0,0.0,74,0.00,,---,0.00,VWS V14.00,2013-05-28 09:50:00,
2013-05-28 04:55:00,67.6,59.1,29.03,SSW,198,0.0,0.0,74,0.00,,---,0.00,VWS V14.00,2013-05-28 09:55:00,
2013-05-28 05:00:00,67.6,59.1,29.03,SSW,198,0.0,0.0,74,0.00,,---,0.00,VWS V14.00,2013-05-28 10:00:00,
2013-05-28 05:05:00,67.8,57.7,29.03,SSW,198,0.0,0.0,70,0.00,,---,0.00,VWS V14.00,2013-05-28 10:05:00,
2013-05-28 05:10:00,67.8,57.7,29.03,SSW,198,0.0,0.0,70,0.00,,---,0.00,VWS V14.00,2013-05-28 10:10:00,
2013-05-28 05:15:00,67.8,57.7,29.03,SSW,198,0.0,0.0,70,0.00,,---,0.00,VWS V14.00,2013-05-28 10:15:00,
2013-05-28 05:20:00,68.0,57.9,29.03,SSW,198,0.0,0.0,70,0.00,,---,0.00,VWS V14.00,2013-05-28 10:20:00,
2013-05-28 05:25:00,68.0,57.9,29.00,SSW,198,0.0,0.0,70,0.00,,---,0.00,VWS V14.00,2013-05-28 10:25:00,
2013-05-28 05:30:00,68.2,58.0,29.00,SSW,198,0.0,0.0,70,0.00,,---,0.00,VWS V14.00,2013-05-28 10:30:00,
2013-05-28 05:35:00,68.2,58.0,29.00,SSW,198,0.0,0.0,70,0.00,,---,0.00,VWS V14.00,2013-05-28 10:35:00,
2013-05-28 05:40:00,68.5,58.4,29.00,SSW,198,0.0,0.0,70,0.00,,---,0.00,VWS V14.00,2013-05-28 10:40:00,
2013-05-28 05:45:00,68.7,58.5,29.00,SSW,198,0.0,0.0,70,0.00,,---,0.00,VWS V14.00,2013-05-28 10:45:00,
2013-05-28 05:50:00,68.7,58.5,29.00,SSW,198,0.0,0.0,70,0.00,,---,0.00,VWS V14.00,2013-05-28 10:50:00,
2013-05-28 05:55:00,69.1,58.9,29.03,SSW,198,0.0,0.0,70,0.00,,---,0.00,VWS V14.00,2013-05-28 10:55:00,
2013-05-28 06:00:00,69.1,58.9,29.03,SSW,198,0.0,0.0,70,0.00,,---,0.00,VWS V14.00,2013-05-28 11:00:00,
2013-05-28 06:05:00,69.3,59.1,29.03,SSW,198,0.0,0.0,70,0.00,,---,0.00,VWS V14.00,2013-05-28 11:05:00,
2013-05-28 06:10:00,69.3,59.1,29.03,SSW,198,0.0,0.0,70,0.00,,---,0.00,VWS V14.00,2013-05-28 11:10:00,
2013-05-28 06:15:00,69.4,59.2,29.03,SSW,198,0.0,0.0,70,0.00,,---,0.00,VWS V14.00,2013-05-28 11:15:00,
2013-05-28 06:20:00,69.4,59.2,29.03,SSW,198,0.0,0.0,70,0.00,,---,0.00,VWS V14.00,2013-05-28 11:20:00,
2013-05-28 06:25:00,69.4,59.2,29.03,SSW,198,0.0,0.0,70,0.00,,---,0.00,VWS V14.00,2013-05-28 11:25:00,
2013-05-28 06:30:00,69.6,59.4,29.03,SSW,198,0.0,0.0,70,0.00,,---,0.00,VWS V14.00,2013-05-28 11:30:00,
2013-05-28 06:35:00,69.6,59.4,29.03,SSW,198,0.0,0.0,70,0.00,,---,0.00,VWS V14.00,2013-05-28 11:35:00,
2013-05-28 06:40:00,69.6,59.4,29.03,SSW,198,0.0,0.0,70,0.00,,---,0.00,VWS V14.00,2013-05-28 11:40:00,
2013-05-28 06:45:00,69.8,58.8,29.03,SSW,198,0.0,0.0,68,0.00,,---,0.00,VWS V14.00,2013-05-28 11:45:00,
2013-05-28 06:50:00,69.8,58.8,29.03,SSW,198,0.0,0.0,68,0.00,,---,0.00,VWS V14.00,2013-05-28 11:50:00,
2013-05-28 06:55:00,69.8,58.8,29.03,SSW,198,0.0,0.0,68,0.00,,---,0.00,VWS V14.00,2013-05-28 11:55:00,
2013-05-28 07:00:00,69.8,58.8,29.03,SSW,198,0.0,0.0,68,0.00,,---,0.00,VWS V14.00,2013-05-28 12:00:00,
2013-05-28 07:05:00,70.0,59.0,29.03,SSW,198,0.0,0.0,68,0.00,,---,0.00,VWS V14.00,2013-05-28 12:05:00,
2013-05-28 07:10:00,70.0,59.0,29.03,SSW,198,0.0,0.0,68,0.00,,---,0.00,VWS V14.00,2013-05-28 12:10:00,
2013-05-28 07:15:00,70.5,59.5,29.03,SSW,198,0.0,0.0,68,0.00,,---,0.00,VWS V14.00,2013-05-28 12:15:00,
2013-05-28 07:20:00,71.8,60.7,29.03,SSW,198,0.0,0.0,68,0.00,,---,0.00,VWS V14.00,2013-05-28 12:20:00,
2013-05-28 07:25:00,72.5,61.3,29.03,SSW,198,0.0,0.0,68,0.00,,---,0.00,VWS V14.00,2013-05-28 12:25:00,
2013-05-28 07:30:00,72.5,61.3,29.03,SSW,198,0.0,0.0,68,0.00,,---,0.00,VWS V14.00,2013-05-28 12:30:00,
2013-05-28 07:35:00,72.5,61.3,29.03,SSW,198,0.0,0.0,68,0.00,,---,0.00,VWS V14.00,2013-05-28 12:35:00,
2013-05-28 07:40:00,73.9,61.9,29.03,SSW,198,0.0,0.0,66,0.00,,---,0.00,VWS V14.00,2013-05-28 12:40:00,
2013-05-28 07:45:00,74.5,62.4,29.03,SSW,198,0.0,0.0,66,0.00,,---,0.00,VWS V14.00,2013-05-28 12:45:00,
2013-05-28 07:50:00,74.8,61.0,29.03,SSW,198,0.0,0.0,62,0.00,,---,0.00,VWS V14.00,2013-05-28 12:50:00,
2013-05-28 07:55:00,75.0,61.1,29.03,SSW,198,0.0,0.0,62,0.00,,---,0.00,VWS V14.00,2013-05-28 12:55:00,
2013-05-28 08:00:00,75.0,61.1,29.03,SSW,198,0.0,0.0,62,0.00,,---,0.00,VWS V14.00,2013-05-28 13:00:00,
2013-05-28 08:05:00,75.9,61.0,29.03,SSW,198,0.0,0.0,60,0.00,,---,0.00,VWS V14.00,2013-05-28 13:05:00,
2013-05-28 08:10:00,76.1,61.2,29.03,SSW,198,0.0,0.0,60,0.00,,---,0.00,VWS V14.00,2013-05-28 13:10:00,
2013-05-28 08:15:00,76.3,61.4,29.03,SSW,198,0.0,0.0,60,0.00,,---,0.00,VWS V14.00,2013-05-28 13:15:00,
2013-05-28 08:20:00,76.5,61.6,29.03,SSW,198,0.0,0.0,60,0.00,,---,0.00,VWS V14.00,2013-05-28 13:20:00,
2013-05-28 08:25:00,76.5,61.6,29.03,SSW,202,3.1,3.1,60,0.00,,---,0.00,VWS V14.00,2013-05-28 13:25:00,
2013-05-28 08:30:00,76.8,61.9,29.03,West,272,5.8,5.8,60,0.00,,---,0.00,VWS V14.00,2013-05-28 13:30:00,
2013-05-28 08:35:00,76.8,61.9,29.03,WNW,285,0.0,5.8,60,0.00,,---,0.00,VWS V14.00,2013-05-28 13:35:00,
2013-05-28 08:40:00,77.5,62.6,29.03,SW,230,3.1,3.1,60,0.00,,---,0.00,VWS V14.00,2013-05-28 13:40:00,
2013-05-28 08:45:00,77.5,62.6,29.03,South,184,4.0,4.0,60,0.00,,---,0.00,VWS V14.00,2013-05-28 13:45:00,
2013-05-28 08:50:00,79.0,63.9,29.03,West,281,4.0,4.0,60,0.00,,---,0.00,VWS V14.00,2013-05-28 13:50:00,
2013-05-28 08:55:00,79.9,64.8,29.03,West,281,4.0,4.0,60,0.00,,---,0.00,VWS V14.00,2013-05-28 13:55:00,
2013-05-28 09:00:00,79.7,64.6,29.03,SSW,197,3.6,3.6,60,0.00,,---,0.00,VWS V14.00,2013-05-28 14:00:00,
2013-05-28 09:05:00,80.1,64.9,29.03,SW,229,5.4,5.4,60,0.00,,---,0.00,VWS V14.00,2013-05-28 14:05:00,
2013-05-28 09:10:00,80.1,64.9,29.03,SW,232,4.0,4.0,60,0.00,,---,0.00,VWS V14.00,2013-05-28 14:10:00,
2013-05-28 09:15:00,79.7,64.6,29.03,West,266,7.6,7.6,60,0.00,,---,0.00,VWS V14.00,2013-05-28 14:15:00,
2013-05-28 09:20:00,79.7,64.6,29.03,WSW,238,3.6,3.6,60,0.00,,---,0.00,VWS V14.00,2013-05-28 14:20:00,
2013-05-28 09:25:00,79.5,64.4,29.03,WSW,246,4.5,4.5,60,0.00,,---,0.00,VWS V14.00,2013-05-28 14:25:00,
2013-05-28 09:30:00,78.8,63.8,29.03,WSW,241,3.6,3.6,60,0.00,,---,0.00,VWS V14.00,2013-05-28 14:30:00,
2013-05-28 09:35:00,78.8,63.8,29.03,SSW,200,4.0,4.0,60,0.00,,---,0.00,VWS V14.00,2013-05-28 14:35:00,
2013-05-28 09:40:00,78.8,63.8,29.03,West,267,5.8,5.8,60,0.00,,---,0.00,VWS V14.00,2013-05-28 14:40:00,
2013-05-28 09:45:00,78.8,63.8,29.03,SSW,209,4.9,4.9,60,0.00,,---,0.00,VWS V14.00,2013-05-28 14:45:00,
2013-05-28 09:50:00,78.8,63.8,29.03,West,277,6.3,6.3,60,0.00,,---,0.00,VWS V14.00,2013-05-28 14:50:00,
2013-05-28 09:55:00,78.8,63.8,29.03,WNW,293,4.0,4.0,60,0.00,,---,0.00,VWS V14.00,2013-05-28 14:55:00,
2013-05-28 10:00:00,78.8,63.8,29.03,SW,219,2.7,2.7,60,0.00,,---,0.00,VWS V14.00,2013-05-28 15:00:00,
2013-05-28 10:05:00,78.8,63.8,29.03,West,267,6.7,6.7,60,0.00,,---,0.00,VWS V14.00,2013-05-28 15:05:00,
2013-05-28 10:10:00,78.8,63.8,29.03,SSW,207,4.0,4.0,60,0.00,,---,0.00,VWS V14.00,2013-05-28 15:10:00,
2013-05-28 10:15:00,78.8,63.8,29.03,West,265,6.3,6.3,60,0.00,,---,0.00,VWS V14.00,2013-05-28 15:15:00,
2013-05-28 10:20:00,78.8,63.8,29.03,SSE,157,4.0,4.0,60,0.00,,---,0.00,VWS V14.00,2013-05-28 15:20:00,
2013-05-28 10:25:00,78.8,63.8,29.03,SW,224,6.3,6.3,60,0.00,,---,0.00,VWS V14.00,2013-05-28 15:25:00,
2013-05-28 10:30:00,78.8,63.8,29.03,WSW,237,9.2,9.2,60,0.00,,---,0.00,VWS V14.00,2013-05-28 15:30:00,
2013-05-28 10:35:00,78.8,63.8,29.03,West,264,4.5,5.8,60,0.00,,---,0.00,VWS V14.00,2013-05-28 15:35:00,
2013-05-28 10:40:00,78.8,63.8,29.03,SW,235,4.0,4.0,60,0.00,,---,0.00,VWS V14.00,2013-05-28 15:40:00,
2013-05-28 10:45:00,78.8,63.8,29.03,West,270,6.3,6.3,60,0.00,,---,0.00,VWS V14.00,2013-05-28 15:45:00,
2013-05-28 10:50:00,78.8,63.8,29.03,SW,220,6.7,6.7,60,0.00,,---,0.00,VWS V14.00,2013-05-28 15:50:00,
2013-05-28 10:55:00,78.8,63.8,29.03,West,274,4.9,4.9,60,0.00,,---,0.00,VWS V14.00,2013-05-28 15:55:00,
2013-05-28 11:00:00,78.8,63.8,29.03,SW,214,4.0,4.0,60,0.00,,---,0.00,VWS V14.00,2013-05-28 16:00:00,
2013-05-28 11:05:00,78.8,63.8,29.03,SW,218,3.6,3.6,60,0.00,,---,0.00,VWS V14.00,2013-05-28 16:05:00,
2013-05-28 11:10:00,78.8,63.8,29.03,SW,218,2.7,2.7,60,0.00,,---,0.00,VWS V14.00,2013-05-28 16:10:00,
2013-05-28 11:15:00,78.8,63.8,29.03,WSW,252,5.8,5.8,60,0.00,,---,0.00,VWS V14.00,2013-05-28 16:15:00,
2013-05-28 11:20:00,78.8,63.8,29.03,SSW,209,5.4,5.4,60,0.00,,---,0.00,VWS V14.00,2013-05-28 16:20:00,
2013-05-28 11:25:00,78.8,63.8,29.03,West,265,5.8,5.8,60,0.00,,---,0.00,VWS V14.00,2013-05-28 16:25:00,
2013-05-28 11:30:00,78.8,63.8,29.03,WSW,245,9.6,9.6,60,0.00,,---,0.00,VWS V14.00,2013-05-28 16:30:00,
2013-05-28 11:35:00,78.8,63.8,29.03,West,262,8.1,8.1,60,0.00,,---,0.00,VWS V14.00,2013-05-28 16:35:00,
2013-05-28 11:40:00,78.8,63.8,29.03,WNW,286,5.4,5.4,60,0.00,,---,0.00,VWS V14.00,2013-05-28 16:40:00,
2013-05-28 11:45:00,78.8,63.8,29.03,WSW,256,6.3,6.3,60,0.00,,---,0.00,VWS V14.00,2013-05-28 16:45:00,
2013-05-28 11:50:00,78.8,63.8,29.03,WNW,298,4.0,5.4,60,0.00,,---,0.00,VWS V14.00,2013-05-28 16:50:00,
2013-05-28 11:55:00,78.8,63.8,29.03,West,261,4.0,4.0,60,0.00,,---,0.00,VWS V14.00,2013-05-28 16:55:00,
2013-05-28 12:00:00,78.8,63.8,29.03,South,177,6.3,6.3,60,0.00,,---,0.00,VWS V14.00,2013-05-28 17:00:00,
2013-05-28 12:05:00,78.8,63.8,29.03,SW,234,4.9,4.9,60,0.00,,---,0.00,VWS V14.00,2013-05-28 17:05:00,
2013-05-28 12:10:00,78.8,63.8,29.03,WSW,246,4.9,4.9,60,0.00,,---,0.00,VWS V14.00,2013-05-28 17:10:00,
2013-05-28 12:15:00,78.8,63.8,29.03,SSW,209,5.8,5.8,60,0.00,,---,0.00,VWS V14.00,2013-05-28 17:15:00,
2013-05-28 12:20:00,78.8,63.8,29.03,WSW,241,4.9,5.4,60,0.00,,---,0.00,VWS V14.00,2013-05-28 17:20:00,
2013-05-28 12:25:00,78.8,63.8,29.03,West,262,5.8,5.8,60,0.00,,---,0.00,VWS V14.00,2013-05-28 17:25:00,
2013-05-28 12:30:00,78.8,63.8,29.03,SSW,195,7.6,7.6,60,0.00,,---,0.00,VWS V14.00,2013-05-28 17:30:00,
2013-05-28 12:35:00,78.8,63.8,29.03,NW,322,3.6,7.6,60,0.00,,---,0.00,VWS V14.00,2013-05-28 17:35:00,
2013-05-28 12:40:00,78.8,63.8,29.03,WSW,250,3.1,3.1,60,0.00,,---,0.00,VWS V14.00,2013-05-28 17:40:00,
2013-05-28 12:45:00,78.8,63.8,29.03,SSW,197,8.7,8.7,60,0.00,,---,0.00,VWS V14.00,2013-05-28 17:45:00,
2013-05-28 12:50:00,78.8,63.8,29.03,West,272,7.2,7.2,60,0.00,,---,0.00,VWS V14.00,2013-05-28 17:50:00,
2013-05-28 12:55:00,78.8,63.8,29.03,WSW,252,2.7,2.7,60,0.00,,---,0.00,VWS V14.00,2013-05-28 17:55:00,
2013-05-28 13:00:00,78.8,63.8,29.03,NNW,328,4.9,4.9,60,0.00,,---,0.00,VWS V14.00,2013-05-28 18:00:00,
2013-05-28 13:05:00,78.8,63.8,29.03,South,177,3.6,3.6,60,0.00,,---,0.00,VWS V14.00,2013-05-28 18:05:00,
2013-05-28 13:10:00,78.8,63.8,29.03,SW,232,3.1,3.1,60,0.00,,---,0.00,VWS V14.00,2013-05-28 18:10:00,
2013-05-28 13:15:00,78.8,63.8,29.03,West,271,5.4,5.4,60,0.00,,---,0.00,VWS V14.00,2013-05-28 18:15:00,
2013-05-28 13:20:00,78.8,63.8,29.03,WSW,258,5.8,5.8,60,0.00,,---,0.00,VWS V14.00,2013-05-28 18:20:00,
2013-05-28 13:25:00,78.8,63.8,29.03,WSW,237,5.8,5.8,60,0.00,,---,0.00,VWS V14.00,2013-05-28 18:25:00,
2013-05-28 13:30:00,78.8,63.8,29.03,WSW,258,4.0,4.0,60,0.00,,---,0.00,VWS V14.00,2013-05-28 18:30:00,
2013-05-28 13:35:00,78.8,63.8,29.03,West,268,3.6,3.6,60,0.00,,---,0.00,VWS V14.00,2013-05-28 18:35:00,
2013-05-28 13:40:00,78.8,63.8,29.03,SSW,206,5.8,5.8,60,0.00,,---,0.00,VWS V14.00,2013-05-28 18:40:00,
2013-05-28 13:45:00,78.8,63.8,29.03,WNW,286,7.6,7.6,60,0.00,,---,0.00,VWS V14.00,2013-05-28 18:45:00,
2013-05-28 13:50:00,78.8,63.8,29.03,SSW,211,4.9,10.1,60,0.00,,---,0.00,VWS V14.00,2013-05-28 18:50:00,
2013-05-28 13:55:00,78.8,63.8,29.03,SSW,206,7.6,7.6,60,0.00,,---,0.00,VWS V14.00,2013-05-28 18:55:00,
2013-05-28 14:00:00,78.8,63.8,29.03,SW,226,8.3,8.3,60,0.00,,---,0.00,VWS V14.00,2013-05-28 19:00:00,
2013-05-28 14:05:00,78.8,63.8,29.03,SW,235,6.3,6.3,60,0.00,,---,0.00,VWS V14.00,2013-05-28 19:05:00,
2013-05-28 14:10:00,78.8,63.8,29.03,WSW,238,8.1,8.1,60,0.00,,---,0.00,VWS V14.00,2013-05-28 19:10:00,
2013-05-28 14:15:00,78.8,63.8,29.03,West,281,4.0,4.0,60,0.00,,---,0.00,VWS V14.00,2013-05-28 19:15:00,
2013-05-28 14:20:00,78.8,63.8,29.03,WNW,288,3.6,3.6,60,0.00,,---,0.00,VWS V14.00,2013-05-28 19:20:00,
2013-05-28 14:25:00,78.8,63.8,29.03,SSW,198,5.4,5.4,60,0.00,,---,0.00,VWS V14.00,2013-05-28 19:25:00,
2013-05-28 14:30:00,78.8,63.8,29.03,WSW,257,2.7,2.7,60,0.00,,---,0.00,VWS V14.00,2013-05-28 19:30:00,
2013-05-28 14:35:00,78.8,63.8,29.03,SW,221,4.0,4.0,60,0.00,,---,0.00,VWS V14.00,2013-05-28 19:35:00,
2013-05-28 14:40:00,78.8,63.8,29.03,WSW,257,7.6,7.6,60,0.00,,---,0.00,VWS V14.00,2013-05-28 19:40:00,
2013-05-28 14:45:00,78.8,63.8,29.03,SSW,196,6.3,6.3,60,0.00,,---,0.00,VWS V14.00,2013-05-28 19:45:00,
2013-05-28 14:50:00,78.8,63.8,29.03,West,262,5.8,5.8,60,0.00,,---,0.00,VWS V14.00,2013-05-28 19:50:00,
2013-05-28 14:55:00,85.5,68.0,29.03,West,267,12.3,12.3,56,0.00,,---,0.00,VWS V14.00,2013-05-28 19:55:00,
2013-05-28 15:00:00,83.8,67.5,29.03,NW,315,2.7,2.7,58,0.00,,---,0.00,VWS V14.00,2013-05-28 20:00:00,
2013-05-28 15:05:00,83.8,67.5,29.03,SW,236,3.6,3.6,58,0.00,,---,0.00,VWS V14.00,2013-05-28 20:05:00,
2013-05-28 15:10:00,83.8,67.5,29.03,SSW,207,4.0,4.0,58,0.00,,---,0.00,VWS V14.00,2013-05-28 20:10:00,
2013-05-28 15:15:00,84.0,67.7,29.03,SSW,197,3.6,6.3,58,0.00,,---,0.00,VWS V14.00,2013-05-28 20:15:00,
2013-05-28 15:20:00,84.0,67.7,29.03,SW,214,2.7,2.7,58,0.00,,---,0.00,VWS V14.00,2013-05-28 20:20:00,
2013-05-28 15:25:00,84.0,67.7,29.03,SSW,205,3.1,3.1,58,0.00,,---,0.00,VWS V14.00,2013-05-28 20:25:00,
2013-05-28 15:30:00,84.0,67.7,29.03,WSW,240,8.7,8.7,58,0.00,,---,0.00,VWS V14.00,2013-05-28 20:30:00,
2013-05-28 15:35:00,84.0,67.7,29.03,WSW,255,4.0,4.0,58,0.00,,---,0.00,VWS V14.00,2013-05-28 20:35:00,
2013-05-28 15:40:00,84.0,67.7,29.03,SSW,202,8.3,8.3,58,0.00,,---,0.00,VWS V14.00,2013-05-28 20:40:00,
2013-05-28 15:45:00,84.0,67.7,29.03,South,183,3.1,3.1,58,0.00,,---,0.00,VWS V14.00,2013-05-28 20:45:00,
2013-05-28 15:50:00,84.0,67.7,29.03,West,266,4.0,4.0,58,0.00,,---,0.00,VWS V14.00,2013-05-28 20:50:00,
2013-05-28 15:55:00,84.0,67.7,29.03,SSW,198,7.6,7.6,58,0.00,,---,0.00,VWS V14.00,2013-05-28 20:55:00,
2013-05-28 16:00:00,84.0,67.7,29.03,SW,216,2.7,2.7,58,0.00,,---,0.00,VWS V14.00,2013-05-28 21:00:00,
2013-05-28 16:05:00,84.0,67.7,29.03,SSW,201,3.6,3.6,58,0.00,,---,0.00,VWS V14.00,2013-05-28 21:05:00,
2013-05-28 16:10:00,84.0,67.7,29.03,West,265,4.0,4.0,58,0.00,,---,0.00,VWS V14.00,2013-05-28 21:10:00,
2013-05-28 16:15:00,84.0,67.7,29.03,SSW,211,5.8,9.6,58,0.00,,---,0.00,VWS V14.00,2013-05-28 21:15:00,
2013-05-28 16:20:00,84.0,67.7,29.03,WSW,252,4.0,4.0,58,0.00,,---,0.00,VWS V14.00,2013-05-28 21:20:00,
2013-05-28 16:25:00,84.0,67.7,29.03,SSW,209,6.3,6.3,58,0.00,,---,0.00,VWS V14.00,2013-05-28 21:25:00,
2013-05-28 16:29:00,84.0,67.7,29.03,SSW,197,3.6,3.6,58,0.00,,---,0.00,VWS V14.00,2013-05-28 21:29:00,
2013-05-28 16:34:00,84.0,67.7,29.03,SW,227,4.0,4.0,58,0.00,,---,0.00,VWS V14.00,2013-05-28 21:34:00,
2013-05-28 16:39:00,84.0,67.7,29.03,WSW,239,3.1,3.1,58,0.00,,---,0.00,VWS V14.00,2013-05-28 21:39:00,
2013-05-28 16:44:00,84.0,67.7,29.03,SSW,210,2.7,2.7,58,0.00,,---,0.00,VWS V14.00,2013-05-28 21:44:00,
2013-05-28 16:49:00,84.0,67.7,29.03,SSW,211,5.8,5.8,58,0.00,,---,0.00,VWS V14.00,2013-05-28 21:49:00,
2013-05-28 16:54:00,84.0,67.7,29.03,West,260,3.6,3.6,58,0.00,,---,0.00,VWS V14.00,2013-05-28 21:54:00,
2013-05-28 16:59:00,84.0,67.7,29.03,WSW,258,5.4,5.4,58,0.00,,---,0.00,VWS V14.00,2013-05-28 21:59:00,
2013-05-28 17:04:00,84.0,67.7,29.03,WSW,239,4.0,4.0,58,0.00,,---,0.00,VWS V14.00,2013-05-28 22:04:00,
2013-05-28 17:09:00,84.0,67.7,29.03,SW,217,3.1,3.6,58,0.00,,---,0.00,VWS V14.00,2013-05-28 22:09:00,
2013-05-28 17:14:00,84.0,67.7,29.03,SW,229,8.7,8.7,58,0.00,,---,0.00,VWS V14.00,2013-05-28 22:14:00,
2013-05-28 17:19:00,84.0,67.7,29.03,SW,232,5.8,5.8,58,0.00,,---,0.00,VWS V14.00,2013-05-28 22:19:00,
2013-05-28 17:24:00,84.0,67.7,29.03,West,273,3.6,3.6,58,0.00,,---,0.00,VWS V14.00,2013-05-28 22:24:00,
2013-05-28 17:29:00,84.0,67.7,29.03,SSW,212,4.9,4.9,58,0.00,,---,0.00,VWS V14.00,2013-05-28 22:29:00,
2013-05-28 17:34:00,84.0,67.7,29.03,SW,232,3.1,3.1,58,0.00,,---,0.00,VWS V14.00,2013-05-28 22:34:00,
2013-05-28 17:39:00,84.0,67.7,29.03,SW,230,4.0,4.0,58,0.00,,---,0.00,VWS V14.00,2013-05-28 22:39:00,
2013-05-28 17:44:00,84.0,67.7,29.03,WNW,287,3.1,3.1,58,0.00,,---,0.00,VWS V14.00,2013-05-28 22:44:00,
2013-05-28 17:49:00,84.0,67.7,29.03,SW,235,0.0,0.0,58,0.00,,---,0.00,VWS V14.00,2013-05-28 22:49:00,
2013-05-28 17:54:00,84.0,67.7,29.03,SSW,196,2.7,2.7,58,0.00,,---,0.00,VWS V14.00,2013-05-28 22:54:00,
2013-05-28 17:59:00,84.0,67.7,29.03,SW,233,2.7,2.7,58,0.00,,---,0.00,VWS V14.00,2013-05-28 22:59:00,
2013-05-28 18:04:00,84.0,67.7,29.03,SW,217,2.7,3.6,58,0.00,,---,0.00,VWS V14.00,2013-05-28 23:04:00,
2013-05-28 18:09:00,84.0,67.7,29.03,WSW,246,3.1,3.1,58,0.00,,---,0.00,VWS V14.00,2013-05-28 23:09:00,
2013-05-28 18:14:00,84.0,67.7,29.03,SW,234,4.0,4.0,58,0.00,,---,0.00,VWS V14.00,2013-05-28 23:14:00,
2013-05-28 18:19:00,84.0,67.7,29.03,WSW,250,8.1,8.1,58,0.00,,---,0.00,VWS V14.00,2013-05-28 23:19:00,
2013-05-28 18:24:00,81.5,65.3,29.03,SW,214,4.9,4.9,58,0.00,,---,0.00,VWS V14.00,2013-05-28 23:24:00,
2013-05-28 18:29:00,81.5,65.3,29.03,WSW,250,3.1,3.1,58,0.00,,---,0.00,VWS V14.00,2013-05-28 23:29:00,
2013-05-28 18:34:00,81.5,65.3,29.03,SW,231,2.7,2.7,58,0.00,,---,0.00,VWS V14.00,2013-05-28 23:34:00,
2013-05-28 18:39:00,81.5,65.3,29.03,SW,224,0.0,0.0,58,0.00,,---,0.00,VWS V14.00,2013-05-28 23:39:00,
2013-05-28 18:44:00,80.1,64.9,29.03,SSW,207,3.1,3.1,60,0.00,,---,0.00,VWS V14.00,2013-05-28 23:44:00,
2013-05-28 18:49:00,80.1,64.9,29.03,SSW,204,2.7,2.7,60,0.00,,---,0.00,VWS V14.00,2013-05-28 23:49:00,
2013-05-28 18:54:00,80.1,64.9,29.03,WSW,251,4.9,4.9,60,0.00,,---,0.00,VWS V14.00,2013-05-28 23:54:00,
2013-05-28 18:59:00,80.1,64.9,29.03,SW,232,3.6,3.6,60,0.00,,---,0.00,VWS V14.00,2013-05-28 23:59:00,
2013-05-28 19:04:00,80.1,64.9,29.03,SW,225,0.0,0.0,60,0.00,,---,0.00,VWS V14.00,2013-05-29 00:04:00,
2013-05-28 19:09:00,78.6,63.6,29.03,SSW,201,0.0,2.2,60,0.00,,---,0.00,VWS V14.00,2013-05-29 00:09:00,
2013-05-28 19:14:00,78.6,63.6,29.03,WSW,242,0.0,0.0,60,0.00,,---,0.00,VWS V14.00,2013-05-29 00:14:00,
2013-05-28 19:19:00,78.6,63.6,29.03,South,184,0.0,0.0,60,0.00,,---,0.00,VWS V14.00,2013-05-29 00:19:00,
2013-05-28 19:24:00,78.6,63.6,29.03,WSW,240,0.0,0.0,60,0.00,,---,0.00,VWS V14.00,2013-05-29 00:24:00,
2013-05-28 19:29:00,78.6,63.6,29.03,WNW,285,0.0,0.0,60,0.00,,---,0.00,VWS V14.00,2013-05-29 00:29:00,
2013-05-28 19:34:00,77.9,62.9,28.97,SSW,199,3.1,3.1,60,0.00,,---,0.00,VWS V14.00,2013-05-29 00:34:00,
2013-05-28 19:39:00,77.9,62.9,28.97,SE,141,4.0,4.0,60,0.00,,---,0.00,VWS V14.00,2013-05-29 00:39:00,
2013-05-28 19:44:00,77.9,62.9,28.97,SSW,206,0.0,0.0,60,0.00,,---,0.00,VWS V14.00,2013-05-29 00:44:00,
2013-05-28 19:49:00,77.9,62.9,28.97,WSW,238,3.1,3.1,60,0.00,,---,0.00,VWS V14.00,2013-05-29 00:49:00,
2013-05-28 19:54:00,77.9,62.9,28.97,SW,227,3.1,3.1,60,0.00,,---,0.00,VWS V14.00,2013-05-29 00:54:00,
2013-05-28 19:59:00,77.0,62.1,28.97,WSW,245,0.0,0.0,60,0.00,,---,0.00,VWS V14.00,2013-05-29 00:59:00,
2013-05-28 20:04:00,77.0,62.1,28.97,WSW,249,3.1,3.1,60,0.00,,---,0.00,VWS V14.00,2013-05-29 01:04:00,
2013-05-28 20:09:00,77.0,62.1,28.97,SSW,209,0.0,0.0,60,0.00,,---,0.00,VWS V14.00,2013-05-29 01:09:00,
2013-05-28 20:14:00,77.0,62.1,28.97,SW,216,0.0,0.0,60,0.00,,---,0.00,VWS V14.00,2013-05-29 01:14:00,
2013-05-28 20:19:00,76.6,61.7,28.97,SW,220,2.2,2.2,60,0.00,,---,0.00,VWS V14.00,2013-05-29 01:19:00,
2013-05-28 20:24:00,76.6,61.7,28.97,South,185,0.0,0.0,60,0.00,,---,0.00,VWS V14.00,2013-05-29 01:24:00,
2013-05-28 20:29:00,76.6,61.7,28.97,SW,225,0.0,0.0,60,0.00,,---,0.00,VWS V14.00,2013-05-29 01:29:00,
2013-05-28 20:34:00,76.6,61.7,28.97,SSW,192,0.0,0.0,60,0.00,,---,0.00,VWS V14.00,2013-05-29 01:34:00,
2013-05-28 20:39:00,76.6,61.7,28.97,West,264,0.0,0.0,60,0.00,,---,0.00,VWS V14.00,2013-05-29 01:39:00,
2013-05-28 20:44:00,75.6,60.7,28.97,SSW,206,0.0,0.0,60,0.00,,---,0.00,VWS V14.00,2013-05-29 01:44:00,
2013-05-28 20:49:00,75.4,60.5,28.97,SW,218,3.1,3.1,60,0.00,,---,0.00,VWS V14.00,2013-05-29 01:49:00,
2013-05-28 20:54:00,75.4,60.5,28.97,South,190,0.0,0.0,60,0.00,,---,0.00,VWS V14.00,2013-05-29 01:54:00,
2013-05-28 20:59:00,75.4,60.5,28.97,WSW,250,3.6,3.6,60,0.00,,---,0.00,VWS V14.00,2013-05-29 01:59:00,
2013-05-28 21:04:00,75.4,60.5,28.97,SE,126,3.6,3.6,60,0.00,,---,0.00,VWS V14.00,2013-05-29 02:04:00,
2013-05-28 21:09:00,75.4,60.5,28.97,SSW,212,5.4,5.4,60,0.00,,---,0.00,VWS V14.00,2013-05-29 02:09:00,
2013-05-28 21:14:00,75.4,60.5,28.97,SSW,211,6.3,6.3,60,0.00,,---,0.00,VWS V14.00,2013-05-29 02:14:00,
2013-05-28 21:19:00,75.0,61.1,28.97,SW,227,0.0,0.0,62,0.00,,---,0.00,VWS V14.00,2013-05-29 02:19:00,
2013-05-28 21:24:00,75.0,61.1,28.97,WSW,243,2.2,2.2,62,0.00,,---,0.00,VWS V14.00,2013-05-29 02:24:00,
2013-05-28 21:29:00,74.8,61.0,28.97,WSW,238,0.0,0.0,62,0.00,,---,0.00,VWS V14.00,2013-05-29 02:29:00,
2013-05-28 21:34:00,74.8,61.0,28.97,SW,229,2.7,2.7,62,0.00,,---,0.00,VWS V14.00,2013-05-29 02:34:00,
2013-05-28 21:39:00,74.8,61.0,28.97,SSW,198,0.0,0.0,62,0.00,,---,0.00,VWS V14.00,2013-05-29 02:39:00,
2013-05-28 21:44:00,74.8,61.0,28.97,WSW,243,0.0,0.0,62,0.00,,---,0.00,VWS V14.00,2013-05-29 02:44:00,
2013-05-28 21:49:00,73.9,60.1,28.97,South,186,0.0,0.0,62,0.00,,---,0.00,VWS V14.00,2013-05-29 02:49:00,
2013-05-28 21:54:00,73.8,59.9,28.97,SW,226,2.7,2.7,62,0.00,,---,0.00,VWS V14.00,2013-05-29 02:54:00,
2013-05-28 21:59:00,73.8,59.9,28.97,SW,221,0.0,0.0,62,0.00,,---,0.00,VWS V14.00,2013-05-29 02:59:00,
2013-05-28 22:04:00,73.8,59.9,28.97,South,184,3.6,3.6,62,0.00,,---,0.00,VWS V14.00,2013-05-29 03:04:00,
2013-05-28 22:09:00,73.8,59.9,28.97,SW,223,0.0,0.0,62,0.00,,---,0.00,VWS V14.00,2013-05-29 03:09:00,
2013-05-28 22:14:00,73.8,59.9,28.97,SSW,198,3.6,3.6,62,0.00,,---,0.00,VWS V14.00,2013-05-29 03:14:00,
2013-05-28 22:19:00,73.9,60.1,28.97,South,183,5.4,5.4,62,0.00,,---,0.00,VWS V14.00,2013-05-29 03:19:00,
2013-05-28 22:24:00,73.9,60.1,28.97,SW,228,2.7,4.0,62,0.00,,---,0.00,VWS V14.00,2013-05-29 03:24:00,
2013-05-28 22:29:00,73.9,60.1,28.97,SW,218,2.7,2.7,62,0.00,,---,0.00,VWS V14.00,2013-05-29 03:29:00,
2013-05-28 22:34:00,73.9,60.1,28.97,SW,219,0.0,0.0,62,0.00,,---,0.00,VWS V14.00,2013-05-29 03:34:00,
2013-05-28 22:39:00,73.8,59.9,28.97,SSW,204,3.6,3.6,62,0.00,,---,0.00,VWS V14.00,2013-05-29 03:39:00,
2013-05-28 22:44:00,73.8,59.9,28.97,SSW,203,0.0,0.0,62,0.00,,---,0.00,VWS V14.00,2013-05-29 03:44:00,
2013-05-28 22:49:00,73.8,59.9,28.97,South,189,2.7,2.7,62,0.00,,---,0.00,VWS V14.00,2013-05-29 03:49:00,
2013-05-28 22:54:00,73.8,59.9,28.97,SSW,202,3.6,3.6,62,0.00,,---,0.00,VWS V14.00,2013-05-29 03:54:00,
2013-05-28 22:59:00,73.8,59.9,28.97,WSW,244,2.7,2.7,62,0.00,,---,0.00,VWS V14.00,2013-05-29 03:59:00,
2013-05-28 23:01:00,73.8,59.9,28.97,SSW,212,3.6,3.6,62,0.00,,---,0.00,VWS V14.00,2013-05-29 04:01:00,
2013-05-28 23:06:00,73.9,60.1,28.97,SSW,209,3.6,3.6,62,0.00,,---,0.00,VWS V14.00,2013-05-29 04:06:00,
2013-05-28 23:11:00,73.9,60.1,28.97,SSW,210,3.1,3.1,62,0.00,,---,0.00,VWS V14.00,2013-05-29 04:11:00,
2013-05-28 23:16:00,73.9,60.1,28.97,SSW,206,3.6,3.6,62,0.00,,---,0.00,VWS V14.00,2013-05-29 04:16:00,
2013-05-28 23:21:00,73.8,59.9,28.97,WSW,254,0.0,0.0,62,0.00,,---,0.00,VWS V14.00,2013-05-29 04:21:00,
2013-05-28 23:26:00,73.6,59.8,28.97,SSW,192,3.6,3.6,62,0.00,,---,0.00,VWS V14.00,2013-05-29 04:26:00,
2013-05-28 23:31:00,73.6,59.8,28.97,WSW,249,4.0,4.0,62,0.00,,---,0.00,VWS V14.00,2013-05-29 04:31:00,
2013-05-28 23:36:00,73.6,59.8,28.97,West,267,2.2,2.2,62,0.00,,---,0.00,VWS V14.00,2013-05-29 04:36:00,
2013-05-28 23:41:00,73.6,59.8,28.97,SW,236,4.0,4.0,62,0.00,,---,0.00,VWS V14.00,2013-05-29 04:41:00,
2013-05-28 23:46:00,72.9,59.1,28.97,WSW,256,3.1,3.1,62,0.00,,---,0.00,VWS V14.00,2013-05-29 04:46:00,
2013-05-28 23:51:00,72.7,58.9,28.97,West,274,0.0,0.0,62,0.00,,---,0.00,VWS V14.00,2013-05-29 04:51:00,
2013-05-28 23:56:00,72.7,58.9,28.97,SSW,203,2.7,2.7,62,0.00,,---,0.00,VWS V14.00,2013-05-29 04:56:00,